Association Sportive et Culturelle de l' Aéroport de Blagnac

Section Vol Moteur

Bienvenue sur le site ASCAB Vol Moteur

LFBO TOULOUSE-BLAGNAC

METAR :
2022/12/03 05:00 LFBO 030500Z AUTO 09003KT 6000 NSC 05/03 Q1010 TEMPO 0600 FG VV///

TAF :
2022/12/02 18:43 TAF LFBO 021700Z 0218/0324 VRB03KT 9999 FEW015 OVC045 TEMPO 0302/0309 4000 BR PROB30 TEMPO 0304/0309 0600 FG VV/// PROB30 TEMPO 0309/0311 3000 BR BKN003 PROB30 TEMPO 0311/0314 BKN005